createdAt,value
2022-12-22T00:06:27.279Z,60.454
2022-12-22T00:21:29.588Z,61.162
2022-12-22T00:36:31.817Z,60.648
2022-12-22T00:51:34.065Z,59.306
2022-12-22T01:06:36.281Z,59.285
2022-12-22T01:21:38.549Z,59.868
2022-12-22T01:36:40.799Z,58.655
2022-12-22T01:51:43.184Z,59.458
2022-12-22T02:06:45.452Z,58.515
2022-12-22T02:21:47.716Z,58.156
2022-12-22T02:36:49.894Z,59.248
2022-12-22T02:51:52.095Z,61.021
2022-12-22T03:06:54.410Z,58.264
2022-12-22T03:21:56.609Z,57.974
2022-12-22T03:36:58.828Z,59.137
2022-12-22T03:52:01.073Z,59.654
2022-12-22T04:07:03.276Z,58.449
2022-12-22T04:22:05.466Z,60.187
2022-12-22T04:37:16.813Z,59.987
2022-12-22T04:52:20.025Z,60.015
2022-12-22T05:07:22.221Z,60.482
2022-12-22T05:22:24.443Z,61.599
2022-12-22T05:37:26.683Z,60.665
2022-12-22T05:52:28.946Z,60.367
2022-12-22T06:07:31.370Z,59.912
2022-12-22T06:22:33.664Z,60.324
2022-12-22T06:37:35.881Z,60.602
2022-12-22T06:52:38.054Z,59.423
2022-12-22T07:07:40.288Z,56.814
2022-12-22T07:22:42.994Z,57.13
2022-12-22T07:37:45.427Z,58.203
2022-12-22T07:52:47.865Z,57.263
2022-12-22T08:07:50.135Z,58.553
2022-12-22T08:22:52.604Z,58.439
2022-12-22T08:37:54.863Z,58.236
2022-12-22T08:52:57.185Z,59.7
2022-12-22T09:07:59.414Z,58.238
2022-12-22T09:23:01.848Z,59.321
2022-12-22T09:38:04.144Z,58.901
2022-12-22T09:53:06.672Z,59.077
2022-12-22T10:08:08.852Z,58.986
2022-12-22T10:23:11.128Z,58.971
2022-12-22T10:38:21.656Z,58.517
2022-12-22T10:53:24.584Z,59.331
2022-12-22T11:08:26.808Z,59.26
2022-12-22T11:23:28.997Z,58.322
2022-12-22T11:38:31.349Z,57.152
2022-12-22T11:53:33.643Z,57.573
2022-12-22T12:08:35.942Z,57.396
2022-12-22T12:23:38.431Z,58.079
2022-12-22T12:39:06.818Z,57.121
2022-12-22T12:54:10.660Z,57.801
2022-12-22T13:09:48.750Z,57.859
2022-12-22T13:24:52.643Z,57.218
2022-12-22T13:39:55.016Z,58.454
2022-12-22T13:54:57.440Z,57.269
2022-12-22T14:09:59.671Z,57.986
2022-12-22T14:25:01.974Z,58.027
2022-12-22T14:40:04.222Z,57.291
2022-12-22T14:55:06.468Z,56.272
2022-12-22T15:10:16.735Z,57.221
2022-12-22T15:25:19.688Z,57.224
2022-12-22T15:40:22.105Z,55.169
2022-12-22T15:55:24.464Z,56.267
2022-12-22T16:10:26.830Z,57.775
2022-12-22T16:25:29.194Z,57.295
2022-12-22T16:40:31.385Z,56.952
2022-12-22T16:55:33.756Z,54.612
2022-12-22T17:10:36.550Z,54.61
2022-12-22T17:25:39.339Z,48.697
2022-12-22T17:40:41.679Z,51.436
2022-12-22T17:56:07.707Z,53.017
2022-12-22T18:11:11.225Z,54.352
2022-12-22T18:26:13.449Z,53.166
2022-12-22T18:41:15.747Z,52.064
2022-12-22T18:56:18.050Z,55.719
2022-12-22T19:11:20.357Z,54.849
2022-12-22T19:26:22.722Z,56.231
2022-12-22T19:41:24.971Z,55.947
2022-12-22T19:56:27.482Z,53.188
2022-12-22T20:11:29.793Z,51.073
2022-12-22T20:26:31.988Z,54.135
2022-12-22T20:41:34.203Z,54.326
2022-12-22T20:56:36.654Z,54.27
2022-12-22T21:11:38.903Z,52.253
2022-12-22T21:26:41.127Z,52.62
2022-12-22T21:41:43.498Z,53.34
2022-12-22T21:56:45.688Z,52.697
2022-12-22T22:11:47.943Z,52.265
2022-12-22T22:26:50.297Z,51.972
2022-12-22T22:41:52.745Z,52.849
2022-12-22T22:56:54.984Z,55.411
2022-12-22T23:11:57.381Z,55.967
2022-12-22T23:26:59.622Z,54.341
2022-12-22T23:42:01.873Z,53.781
2022-12-22T23:57:04.364Z,55.196
